sensor_id;sensor_type;location;lat;lon;timestamp;P1;durP1;ratioP1;P2;durP2;ratioP2
16839;SDS011;8536;52.150;11.572;2022-08-01T00:00:01;2.22;;;1.92;;
16839;SDS011;8536;52.150;11.572;2022-08-01T00:02:30;2.13;;;1.90;;
16839;SDS011;8536;52.150;11.572;2022-08-01T00:04:57;2.38;;;2.00;;
16839;SDS011;8536;52.150;11.572;2022-08-01T00:07:24;2.38;;;2.10;;
16839;SDS011;8536;52.150;11.572;2022-08-01T00:09:50;2.35;;;2.15;;
16839;SDS011;8536;52.150;11.572;2022-08-01T00:12:17;2.17;;;1.98;;
16839;SDS011;8536;52.150;11.572;2022-08-01T00:14:43;2.47;;;1.80;;
16839;SDS011;8536;52.150;11.572;2022-08-01T00:17:09;2.40;;;2.20;;
16839;SDS011;8536;52.150;11.572;2022-08-01T00:19:36;2.25;;;2.05;;
16839;SDS011;8536;52.150;11.572;2022-08-01T00:22:02;1.95;;;1.80;;
16839;SDS011;8536;52.150;11.572;2022-08-01T00:24:29;2.20;;;2.00;;
16839;SDS011;8536;52.150;11.572;2022-08-01T00:26:56;2.30;;;2.10;;
16839;SDS011;8536;52.150;11.572;2022-08-01T00:29:22;2.60;;;1.92;;
16839;SDS011;8536;52.150;11.572;2022-08-01T00:32:09;3.03;;;2.15;;
16839;SDS011;8536;52.150;11.572;2022-08-01T00:34:35;2.10;;;2.00;;
16839;SDS011;8536;52.150;11.572;2022-08-01T00:37:02;2.08;;;1.80;;
16839;SDS011;8536;52.150;11.572;2022-08-01T00:39:28;2.25;;;2.05;;
16839;SDS011;8536;52.150;11.572;2022-08-01T00:41:55;3.08;;;2.10;;
16839;SDS011;8536;52.150;11.572;2022-08-01T00:44:25;2.10;;;1.80;;
16839;SDS011;8536;52.150;11.572;2022-08-01T00:46:52;2.30;;;2.05;;
16839;SDS011;8536;52.150;11.572;2022-08-01T00:49:18;2.25;;;2.05;;
16839;SDS011;8536;52.150;11.572;2022-08-01T00:51:45;2.45;;;2.25;;
16839;SDS011;8536;52.150;11.572;2022-08-01T00:54:11;2.50;;;2.30;;
16839;SDS011;8536;52.150;11.572;2022-08-01T00:56:41;2.13;;;1.92;;
16839;SDS011;8536;52.150;11.572;2022-08-01T00:59:08;2.10;;;2.00;;
16839;SDS011;8536;52.150;11.572;2022-08-01T01:01:35;2.65;;;2.17;;
16839;SDS011;8536;52.150;11.572;2022-08-01T01:04:05;2.83;;;2.10;;
16839;SDS011;8536;52.150;11.572;2022-08-01T01:06:37;2.33;;;2.13;;
16839;SDS011;8536;52.150;11.572;2022-08-01T01:12:15;3.13;;;1.90;;
16839;SDS011;8536;52.150;11.572;2022-08-01T01:14:51;2.25;;;2.05;;
16839;SDS011;8536;52.150;11.572;2022-08-01T01:17:24;3.60;;;2.40;;
16839;SDS011;8536;52.150;11.572;2022-08-01T01:20:15;2.33;;;2.15;;
16839;SDS011;8536;52.150;11.572;2022-08-01T01:23:04;3.90;;;2.13;;
16839;SDS011;8536;52.150;11.572;2022-08-01T01:28:15;4.13;;;2.20;;
16839;SDS011;8536;52.150;11.572;2022-08-01T01:30:49;2.30;;;2.10;;
16839;SDS011;8536;52.150;11.572;2022-08-01T01:33:17;2.65;;;2.45;;
16839;SDS011;8536;52.150;11.572;2022-08-01T01:35:46;2.30;;;2.10;;
16839;SDS011;8536;52.150;11.572;2022-08-01T01:38:15;2.70;;;2.20;;
16839;SDS011;8536;52.150;11.572;2022-08-01T01:40:45;2.55;;;2.35;;
16839;SDS011;8536;52.150;11.572;2022-08-01T01:43:12;2.50;;;2.30;;
16839;SDS011;8536;52.150;11.572;2022-08-01T01:45:40;3.22;;;2.75;;
16839;SDS011;8536;52.150;11.572;2022-08-01T01:48:09;3.58;;;2.65;;
16839;SDS011;8536;52.150;11.572;2022-08-01T01:50:36;3.15;;;2.85;;
16839;SDS011;8536;52.150;11.572;2022-08-01T01:53:03;2.63;;;2.35;;
16839;SDS011;8536;52.150;11.572;2022-08-01T01:55:30;3.42;;;3.13;;
16839;SDS011;8536;52.150;11.572;2022-08-01T01:58:14;2.83;;;2.63;;
16839;SDS011;8536;52.150;11.572;2022-08-01T02:00:42;3.13;;;2.70;;
16839;SDS011;8536;52.150;11.572;2022-08-01T02:03:11;3.15;;;2.88;;
16839;SDS011;8536;52.150;11.572;2022-08-01T02:05:38;3.22;;;2.65;;
16839;SDS011;8536;52.150;11.572;2022-08-01T02:08:05;3.38;;;2.85;;
16839;SDS011;8536;52.150;11.572;2022-08-01T02:10:32;3.00;;;2.80;;
16839;SDS011;8536;52.150;11.572;2022-08-01T02:13:02;2.58;;;2.35;;
16839;SDS011;8536;52.150;11.572;2022-08-01T02:15:30;2.70;;;2.50;;
16839;SDS011;8536;52.150;11.572;2022-08-01T02:17:57;2.47;;;2.28;;
16839;SDS011;8536;52.150;11.572;2022-08-01T02:20:25;3.08;;;2.75;;
16839;SDS011;8536;52.150;11.572;2022-08-01T02:22:55;2.70;;;2.50;;
16839;SDS011;8536;52.150;11.572;2022-08-01T02:25:25;3.13;;;2.83;;
16839;SDS011;8536;52.150;11.572;2022-08-01T02:27:56;3.63;;;2.80;;
16839;SDS011;8536;52.150;11.572;2022-08-01T02:30:31;2.95;;;2.75;;
16839;SDS011;8536;52.150;11.572;2022-08-01T02:33:05;3.10;;;2.90;;
16839;SDS011;8536;52.150;11.572;2022-08-01T02:35:41;3.45;;;3.05;;
16839;SDS011;8536;52.150;11.572;2022-08-01T02:38:31;3.63;;;3.33;;
16839;SDS011;8536;52.150;11.572;2022-08-01T02:40:59;3.40;;;3.00;;
16839;SDS011;8536;52.150;11.572;2022-08-01T02:43:29;3.55;;;3.25;;
16839;SDS011;8536;52.150;11.572;2022-08-01T02:45:58;3.40;;;2.88;;
16839;SDS011;8536;52.150;11.572;2022-08-01T02:48:26;3.63;;;3.10;;
16839;SDS011;8536;52.150;11.572;2022-08-01T02:50:55;3.45;;;3.15;;
16839;SDS011;8536;52.150;11.572;2022-08-01T02:53:23;3.70;;;3.40;;
16839;SDS011;8536;52.150;11.572;2022-08-01T02:56:09;3.65;;;3.33;;
16839;SDS011;8536;52.150;11.572;2022-08-01T02:58:36;4.03;;;3.72;;
16839;SDS011;8536;52.150;11.572;2022-08-01T03:01:04;4.70;;;3.63;;
16839;SDS011;8536;52.150;11.572;2022-08-01T03:03:33;3.70;;;3.38;;
16839;SDS011;8536;52.150;11.572;2022-08-01T03:05:59;3.42;;;3.13;;
16839;SDS011;8536;52.150;11.572;2022-08-01T03:08:27;4.75;;;3.38;;
16839;SDS011;8536;52.150;11.572;2022-08-01T03:10:55;4.30;;;3.90;;
16839;SDS011;8536;52.150;11.572;2022-08-01T03:13:22;4.50;;;4.10;;
16839;SDS011;8536;52.150;11.572;2022-08-01T03:15:51;4.90;;;4.40;;
16839;SDS011;8536;52.150;11.572;2022-08-01T03:18:18;4.32;;;3.88;;
16839;SDS011;8536;52.150;11.572;2022-08-01T03:20:44;3.45;;;3.25;;
16839;SDS011;8536;52.150;11.572;2022-08-01T03:23:11;3.47;;;3.22;;
16839;SDS011;8536;52.150;11.572;2022-08-01T03:25:39;4.53;;;4.10;;
16839;SDS011;8536;52.150;11.572;2022-08-01T03:28:07;3.58;;;3.28;;
16839;SDS011;8536;52.150;11.572;2022-08-01T03:30:35;3.92;;;3.50;;
16839;SDS011;8536;52.150;11.572;2022-08-01T03:33:03;3.65;;;3.38;;
16839;SDS011;8536;52.150;11.572;2022-08-01T03:35:30;3.50;;;3.30;;
16839;SDS011;8536;52.150;11.572;2022-08-01T03:37:59;4.25;;;3.20;;
16839;SDS011;8536;52.150;11.572;2022-08-01T03:43:48;3.00;;;2.80;;
16839;SDS011;8536;52.150;11.572;2022-08-01T03:46:21;3.50;;;3.20;;
16839;SDS011;8536;52.150;11.572;2022-08-01T03:48:50;3.20;;;2.90;;
16839;SDS011;8536;52.150;11.572;2022-08-01T03:51:20;3.22;;;2.90;;
16839;SDS011;8536;52.150;11.572;2022-08-01T03:53:47;3.63;;;3.20;;
16839;SDS011;8536;52.150;11.572;2022-08-01T03:56:16;4.10;;;3.22;;
16839;SDS011;8536;52.150;11.572;2022-08-01T03:58:45;4.18;;;3.45;;
16839;SDS011;8536;52.150;11.572;2022-08-01T04:01:15;3.83;;;3.53;;
16839;SDS011;8536;52.150;11.572;2022-08-01T04:03:42;4.80;;;3.33;;
16839;SDS011;8536;52.150;11.572;2022-08-01T04:06:09;4.07;;;3.53;;
16839;SDS011;8536;52.150;11.572;2022-08-01T04:08:37;4.10;;;3.78;;
16839;SDS011;8536;52.150;11.572;2022-08-01T04:11:04;3.75;;;3.45;;
16839;SDS011;8536;52.150;11.572;2022-08-01T04:13:31;4.22;;;3.92;;
16839;SDS011;8536;52.150;11.572;2022-08-01T04:16:02;4.35;;;4.05;;
16839;SDS011;8536;52.150;11.572;2022-08-01T04:18:29;4.57;;;4.15;;
16839;SDS011;8536;52.150;11.572;2022-08-01T04:20:55;4.07;;;3.78;;
16839;SDS011;8536;52.150;11.572;2022-08-01T04:23:24;4.82;;;4.43;;
16839;SDS011;8536;52.150;11.572;2022-08-01T04:25:51;4.35;;;3.97;;
16839;SDS011;8536;52.150;11.572;2022-08-01T04:28:18;3.83;;;3.53;;
16839;SDS011;8536;52.150;11.572;2022-08-01T04:30:46;4.47;;;3.90;;
16839;SDS011;8536;52.150;11.572;2022-08-01T04:33:14;3.63;;;3.42;;
16839;SDS011;8536;52.150;11.572;2022-08-01T04:35:42;4.65;;;4.22;;
16839;SDS011;8536;52.150;11.572;2022-08-01T04:38:29;4.30;;;3.97;;
16839;SDS011;8536;52.150;11.572;2022-08-01T04:40:57;4.15;;;3.70;;
16839;SDS011;8536;52.150;11.572;2022-08-01T04:43:23;4.18;;;3.65;;
16839;SDS011;8536;52.150;11.572;2022-08-01T04:45:50;3.70;;;3.42;;
16839;SDS011;8536;52.150;11.572;2022-08-01T04:48:17;3.70;;;3.40;;
16839;SDS011;8536;52.150;11.572;2022-08-01T04:50:48;4.25;;;3.38;;
16839;SDS011;8536;52.150;11.572;2022-08-01T04:53:15;4.13;;;3.83;;
16839;SDS011;8536;52.150;11.572;2022-08-01T04:55:45;3.40;;;3.20;;
16839;SDS011;8536;52.150;11.572;2022-08-01T04:58:12;4.18;;;3.50;;
16839;SDS011;8536;52.150;11.572;2022-08-01T05:00:43;3.60;;;3.30;;
16839;SDS011;8536;52.150;11.572;2022-08-01T05:03:09;3.35;;;3.15;;
16839;SDS011;8536;52.150;11.572;2022-08-01T05:05:36;3.40;;;3.10;;
16839;SDS011;8536;52.150;11.572;2022-08-01T05:08:02;3.40;;;3.10;;
16839;SDS011;8536;52.150;11.572;2022-08-01T05:10:29;4.15;;;3.72;;
16839;SDS011;8536;52.150;11.572;2022-08-01T05:12:56;2.97;;;2.78;;
16839;SDS011;8536;52.150;11.572;2022-08-01T05:15:23;2.83;;;2.25;;
16839;SDS011;8536;52.150;11.572;2022-08-01T05:17:49;4.40;;;2.78;;
16839;SDS011;8536;52.150;11.572;2022-08-01T05:20:16;3.00;;;2.80;;
16839;SDS011;8536;52.150;11.572;2022-08-01T05:22:43;3.40;;;2.85;;
16839;SDS011;8536;52.150;11.572;2022-08-01T05:25:09;4.13;;;2.80;;
16839;SDS011;8536;52.150;11.572;2022-08-01T05:27:38;3.63;;;2.78;;
16839;SDS011;8536;52.150;11.572;2022-08-01T05:30:07;2.25;;;2.05;;
16839;SDS011;8536;52.150;11.572;2022-08-01T05:32:34;1.85;;;1.75;;
16839;SDS011;8536;52.150;11.572;2022-08-01T05:35:01;1.77;;;1.67;;
16839;SDS011;8536;52.150;11.572;2022-08-01T05:37:27;1.55;;;1.45;;
16839;SDS011;8536;52.150;11.572;2022-08-01T05:39:54;2.05;;;1.52;;
16839;SDS011;8536;52.150;11.572;2022-08-01T05:42:20;1.73;;;1.63;;
16839;SDS011;8536;52.150;11.572;2022-08-01T05:44:47;1.98;;;1.77;;
16839;SDS011;8536;52.150;11.572;2022-08-01T05:47:13;1.90;;;1.73;;
16839;SDS011;8536;52.150;11.572;2022-08-01T05:49:40;1.70;;;1.60;;
16839;SDS011;8536;52.150;11.572;2022-08-01T05:52:06;1.60;;;1.50;;
16839;SDS011;8536;52.150;11.572;2022-08-01T05:54:34;1.67;;;1.58;;
16839;SDS011;8536;52.150;11.572;2022-08-01T05:57:00;1.67;;;1.52;;
16839;SDS011;8536;52.150;11.572;2022-08-01T05:59:28;1.48;;;1.40;;
16839;SDS011;8536;52.150;11.572;2022-08-01T06:01:55;1.65;;;1.55;;
16839;SDS011;8536;52.150;11.572;2022-08-01T06:04:22;1.60;;;1.50;;
16839;SDS011;8536;52.150;11.572;2022-08-01T06:06:48;1.58;;;1.48;;
16839;SDS011;8536;52.150;11.572;2022-08-01T06:09:16;1.63;;;1.52;;
16839;SDS011;8536;52.150;11.572;2022-08-01T06:11:42;1.75;;;1.60;;
16839;SDS011;8536;52.150;11.572;2022-08-01T06:14:09;1.75;;;1.65;;
16839;SDS011;8536;52.150;11.572;2022-08-01T06:16:35;1.63;;;1.52;;
16839;SDS011;8536;52.150;11.572;2022-08-01T06:19:02;1.55;;;1.45;;
16839;SDS011;8536;52.150;11.572;2022-08-01T06:21:28;1.85;;;1.75;;
16839;SDS011;8536;52.150;11.572;2022-08-01T06:23:55;1.27;;;1.17;;
16839;SDS011;8536;52.150;11.572;2022-08-01T06:26:21;1.38;;;1.35;;
16839;SDS011;8536;52.150;11.572;2022-08-01T06:28:47;1.85;;;1.50;;
16839;SDS011;8536;52.150;11.572;2022-08-01T06:31:14;3.17;;;1.60;;
16839;SDS011;8536;52.150;11.572;2022-08-01T06:33:41;2.40;;;1.60;;
16839;SDS011;8536;52.150;11.572;2022-08-01T06:36:08;2.00;;;1.83;;
16839;SDS011;8536;52.150;11.572;2022-08-01T06:38:35;2.08;;;1.98;;
16839;SDS011;8536;52.150;11.572;2022-08-01T06:41:01;2.55;;;2.00;;
16839;SDS011;8536;52.150;11.572;2022-08-01T06:43:28;2.30;;;2.10;;
16839;SDS011;8536;52.150;11.572;2022-08-01T06:45:54;1.95;;;1.85;;
16839;SDS011;8536;52.150;11.572;2022-08-01T06:48:21;1.80;;;1.65;;
16839;SDS011;8536;52.150;11.572;2022-08-01T06:50:48;2.38;;;2.17;;
16839;SDS011;8536;52.150;11.572;2022-08-01T06:53:15;2.08;;;1.70;;
16839;SDS011;8536;52.150;11.572;2022-08-01T06:55:41;2.17;;;1.85;;
16839;SDS011;8536;52.150;11.572;2022-08-01T06:58:08;1.83;;;1.60;;
16839;SDS011;8536;52.150;11.572;2022-08-01T07:00:34;3.10;;;2.00;;
16839;SDS011;8536;52.150;11.572;2022-08-01T07:03:01;2.25;;;1.92;;
16839;SDS011;8536;52.150;11.572;2022-08-01T07:05:28;2.20;;;1.60;;
16839;SDS011;8536;52.150;11.572;2022-08-01T07:07:56;1.30;;;1.20;;
16839;SDS011;8536;52.150;11.572;2022-08-01T07:10:23;1.95;;;1.50;;
16839;SDS011;8536;52.150;11.572;2022-08-01T07:12:50;2.05;;;1.60;;
16839;SDS011;8536;52.150;11.572;2022-08-01T07:15:16;1.30;;;1.20;;
16839;SDS011;8536;52.150;11.572;2022-08-01T07:17:44;1.67;;;1.40;;
16839;SDS011;8536;52.150;11.572;2022-08-01T07:20:11;2.55;;;1.45;;
16839;SDS011;8536;52.150;11.572;2022-08-01T07:22:41;1.45;;;1.35;;
16839;SDS011;8536;52.150;11.572;2022-08-01T07:25:08;1.15;;;1.10;;
16839;SDS011;8536;52.150;11.572;2022-08-01T07:27:35;1.45;;;1.35;;
16839;SDS011;8536;52.150;11.572;2022-08-01T07:30:02;1.25;;;1.25;;
16839;SDS011;8536;52.150;11.572;2022-08-01T07:32:30;1.40;;;1.30;;
16839;SDS011;8536;52.150;11.572;2022-08-01T07:34:56;1.38;;;1.27;;
16839;SDS011;8536;52.150;11.572;2022-08-01T07:37:25;2.58;;;1.38;;
16839;SDS011;8536;52.150;11.572;2022-08-01T07:40:11;1.88;;;1.48;;
16839;SDS011;8536;52.150;11.572;2022-08-01T07:42:38;1.50;;;1.40;;
16839;SDS011;8536;52.150;11.572;2022-08-01T07:45:04;1.67;;;1.40;;
16839;SDS011;8536;52.150;11.572;2022-08-01T07:47:31;1.48;;;1.38;;
16839;SDS011;8536;52.150;11.572;2022-08-01T07:50:02;2.35;;;1.60;;
16839;SDS011;8536;52.150;11.572;2022-08-01T07:52:29;1.27;;;1.17;;
16839;SDS011;8536;52.150;11.572;2022-08-01T07:54:56;1.58;;;1.48;;
16839;SDS011;8536;52.150;11.572;2022-08-01T07:57:23;1.23;;;1.13;;
16839;SDS011;8536;52.150;11.572;2022-08-01T07:59:50;2.05;;;1.05;;
16839;SDS011;8536;52.150;11.572;2022-08-01T08:02:17;0.90;;;0.90;;
16839;SDS011;8536;52.150;11.572;2022-08-01T08:04:43;1.00;;;0.98;;
16839;SDS011;8536;52.150;11.572;2022-08-01T08:07:14;1.20;;;1.10;;
16839;SDS011;8536;52.150;11.572;2022-08-01T08:09:40;1.20;;;1.10;;
16839;SDS011;8536;52.150;11.572;2022-08-01T08:12:07;1.10;;;1.00;;
16839;SDS011;8536;52.150;11.572;2022-08-01T08:14:34;1.30;;;1.20;;
16839;SDS011;8536;52.150;11.572;2022-08-01T08:17:01;1.48;;;1.38;;
16839;SDS011;8536;52.150;11.572;2022-08-01T08:19:28;1.58;;;1.30;;
16839;SDS011;8536;52.150;11.572;2022-08-01T08:22:04;1.77;;;1.27;;
16839;SDS011;8536;52.150;11.572;2022-08-01T08:24:32;1.80;;;1.52;;
16839;SDS011;8536;52.150;11.572;2022-08-01T08:26:59;1.40;;;1.30;;
16839;SDS011;8536;52.150;11.572;2022-08-01T08:29:26;1.50;;;1.40;;
16839;SDS011;8536;52.150;11.572;2022-08-01T08:31:56;1.50;;;1.40;;
16839;SDS011;8536;52.150;11.572;2022-08-01T08:34:23;1.45;;;1.35;;
16839;SDS011;8536;52.150;11.572;2022-08-01T08:36:51;1.42;;;1.23;;
16839;SDS011;8536;52.150;11.572;2022-08-01T08:39:18;3.40;;;1.67;;
16839;SDS011;8536;52.150;11.572;2022-08-01T08:41:46;1.50;;;1.30;;
16839;SDS011;8536;52.150;11.572;2022-08-01T08:44:15;2.22;;;1.40;;
16839;SDS011;8536;52.150;11.572;2022-08-01T08:46:43;1.40;;;1.30;;
16839;SDS011;8536;52.150;11.572;2022-08-01T08:49:11;1.33;;;1.23;;
16839;SDS011;8536;52.150;11.572;2022-08-01T08:51:39;1.52;;;1.23;;
16839;SDS011;8536;52.150;11.572;2022-08-01T08:54:10;1.50;;;1.40;;
16839;SDS011;8536;52.150;11.572;2022-08-01T08:56:38;2.28;;;1.30;;
16839;SDS011;8536;52.150;11.572;2022-08-01T08:59:05;1.23;;;1.13;;
16839;SDS011;8536;52.150;11.572;2022-08-01T09:01:31;1.95;;;1.25;;
16839;SDS011;8536;52.150;11.572;2022-08-01T09:04:02;1.05;;;0.95;;
16839;SDS011;8536;52.150;11.572;2022-08-01T09:06:29;0.90;;;0.90;;
16839;SDS011;8536;52.150;11.572;2022-08-01T09:08:56;0.85;;;0.80;;
16839;SDS011;8536;52.150;11.572;2022-08-01T09:11:23;0.60;;;0.60;;
16839;SDS011;8536;52.150;11.572;2022-08-01T09:16:37;0.80;;;0.80;;
16839;SDS011;8536;52.150;11.572;2022-08-01T09:19:14;1.27;;;0.98;;
16839;SDS011;8536;52.150;11.572;2022-08-01T09:22:03;0.68;;;0.68;;
16839;SDS011;8536;52.150;11.572;2022-08-01T09:24:32;0.70;;;0.70;;
16839;SDS011;8536;52.150;11.572;2022-08-01T09:27:00;0.75;;;0.75;;
16839;SDS011;8536;52.150;11.572;2022-08-01T09:29:30;0.70;;;0.70;;
16839;SDS011;8536;52.150;11.572;2022-08-01T09:32:04;0.85;;;0.85;;
16839;SDS011;8536;52.150;11.572;2022-08-01T09:34:32;0.75;;;0.75;;
16839;SDS011;8536;52.150;11.572;2022-08-01T09:37:00;0.70;;;0.70;;
16839;SDS011;8536;52.150;11.572;2022-08-01T09:39:28;0.70;;;0.70;;
16839;SDS011;8536;52.150;11.572;2022-08-01T09:41:57;0.70;;;0.70;;
16839;SDS011;8536;52.150;11.572;2022-08-01T09:44:41;0.80;;;0.80;;
16839;SDS011;8536;52.150;11.572;2022-08-01T09:47:20;0.60;;;0.60;;
16839;SDS011;8536;52.150;11.572;2022-08-01T09:49:56;0.70;;;0.70;;
16839;SDS011;8536;52.150;11.572;2022-08-01T09:52:26;1.95;;;0.80;;
16839;SDS011;8536;52.150;11.572;2022-08-01T09:54:56;1.63;;;0.65;;
16839;SDS011;8536;52.150;11.572;2022-08-01T09:57:23;0.70;;;0.70;;
16839;SDS011;8536;52.150;11.572;2022-08-01T09:59:51;0.63;;;0.63;;
16839;SDS011;8536;52.150;11.572;2022-08-01T10:05:04;0.60;;;0.60;;
16839;SDS011;8536;52.150;11.572;2022-08-01T10:07:34;1.10;;;0.50;;
16839;SDS011;8536;52.150;11.572;2022-08-01T10:10:10;0.88;;;0.50;;
16839;SDS011;8536;52.150;11.572;2022-08-01T10:12:37;0.52;;;0.50;;
16839;SDS011;8536;52.150;11.572;2022-08-01T10:15:10;0.45;;;0.45;;
16839;SDS011;8536;52.150;11.572;2022-08-01T10:17:39;0.57;;;0.57;;
16839;SDS011;8536;52.150;11.572;2022-08-01T10:20:17;0.60;;;0.52;;
16839;SDS011;8536;52.150;11.572;2022-08-01T10:22:57;0.60;;;0.47;;
16839;SDS011;8536;52.150;11.572;2022-08-01T10:25:28;0.50;;;0.50;;
16839;SDS011;8536;52.150;11.572;2022-08-01T10:28:15;0.50;;;0.50;;
16839;SDS011;8536;52.150;11.572;2022-08-01T10:30:47;1.23;;;0.70;;
16839;SDS011;8536;52.150;11.572;2022-08-01T10:33:14;0.60;;;0.60;;
16839;SDS011;8536;52.150;11.572;2022-08-01T10:36:01;0.63;;;0.60;;
16839;SDS011;8536;52.150;11.572;2022-08-01T10:41:02;0.57;;;0.50;;
16839;SDS011;8536;52.150;11.572;2022-08-01T10:43:33;0.60;;;0.60;;
16839;SDS011;8536;52.150;11.572;2022-08-01T10:46:02;0.98;;;0.60;;
16839;SDS011;8536;52.150;11.572;2022-08-01T10:48:31;0.50;;;0.50;;
16839;SDS011;8536;52.150;11.572;2022-08-01T10:51:04;0.60;;;0.60;;
16839;SDS011;8536;52.150;11.572;2022-08-01T10:53:47;0.75;;;0.70;;
16839;SDS011;8536;52.150;11.572;2022-08-01T10:56:19;0.80;;;0.63;;
16839;SDS011;8536;52.150;11.572;2022-08-01T10:58:55;0.82;;;0.60;;
16839;SDS011;8536;52.150;11.572;2022-08-01T11:01:32;0.85;;;0.52;;
16839;SDS011;8536;52.150;11.572;2022-08-01T11:04:04;0.70;;;0.68;;
16839;SDS011;8536;52.150;11.572;2022-08-01T11:09:14;0.70;;;0.70;;
16839;SDS011;8536;52.150;11.572;2022-08-01T11:17:30;0.75;;;0.70;;
16839;SDS011;8536;52.150;11.572;2022-08-01T11:26:15;1.60;;;0.70;;
16839;SDS011;8536;52.150;11.572;2022-08-01T11:28:35;0.80;;;0.80;;
16839;SDS011;8536;52.150;11.572;2022-08-01T11:38:41;0.60;;;0.60;;
16839;SDS011;8536;52.150;11.572;2022-08-01T11:41:25;0.57;;;0.57;;
16839;SDS011;8536;52.150;11.572;2022-08-01T11:44:11;0.80;;;0.70;;
16839;SDS011;8536;52.150;11.572;2022-08-01T11:46:49;1.60;;;0.60;;
16839;SDS011;8536;52.150;11.572;2022-08-01T11:49:59;1.15;;;0.60;;
16839;SDS011;8536;52.150;11.572;2022-08-01T11:52:09;0.50;;;0.50;;
16839;SDS011;8536;52.150;11.572;2022-08-01T11:54:38;0.60;;;0.50;;
16839;SDS011;8536;52.150;11.572;2022-08-01T11:57:07;0.68;;;0.68;;
16839;SDS011;8536;52.150;11.572;2022-08-01T11:59:45;0.50;;;0.50;;
16839;SDS011;8536;52.150;11.572;2022-08-01T12:02:30;0.50;;;0.50;;
16839;SDS011;8536;52.150;11.572;2022-08-01T12:05:03;0.60;;;0.50;;
16839;SDS011;8536;52.150;11.572;2022-08-01T12:07:37;1.35;;;0.70;;
16839;SDS011;8536;52.150;11.572;2022-08-01T12:10:07;0.60;;;0.57;;
16839;SDS011;8536;52.150;11.572;2022-08-01T12:12:42;0.55;;;0.55;;
16839;SDS011;8536;52.150;11.572;2022-08-01T12:15:10;0.80;;;0.68;;
16839;SDS011;8536;52.150;11.572;2022-08-01T12:17:38;0.60;;;0.60;;
16839;SDS011;8536;52.150;11.572;2022-08-01T12:20:24;1.02;;;0.60;;
16839;SDS011;8536;52.150;11.572;2022-08-01T12:22:57;0.75;;;0.70;;
16839;SDS011;8536;52.150;11.572;2022-08-01T12:25:24;1.20;;;0.63;;
16839;SDS011;8536;52.150;11.572;2022-08-01T12:27:51;0.80;;;0.60;;
16839;SDS011;8536;52.150;11.572;2022-08-01T12:30:22;0.55;;;0.50;;
16839;SDS011;8536;52.150;11.572;2022-08-01T12:32:50;0.60;;;0.60;;
16839;SDS011;8536;52.150;11.572;2022-08-01T12:35:19;1.13;;;0.65;;
16839;SDS011;8536;52.150;11.572;2022-08-01T12:37:49;0.50;;;0.50;;
16839;SDS011;8536;52.150;11.572;2022-08-01T12:42:51;0.75;;;0.75;;
16839;SDS011;8536;52.150;11.572;2022-08-01T12:45:24;0.60;;;0.60;;
16839;SDS011;8536;52.150;11.572;2022-08-01T12:48:22;0.90;;;0.68;;
16839;SDS011;8536;52.150;11.572;2022-08-01T12:50:49;0.60;;;0.60;;
16839;SDS011;8536;52.150;11.572;2022-08-01T12:53:17;0.73;;;0.73;;
16839;SDS011;8536;52.150;11.572;2022-08-01T12:55:51;0.60;;;0.60;;
16839;SDS011;8536;52.150;11.572;2022-08-01T12:58:30;0.60;;;0.60;;
16839;SDS011;8536;52.150;11.572;2022-08-01T13:01:03;1.75;;;0.50;;
16839;SDS011;8536;52.150;11.572;2022-08-01T13:03:38;0.60;;;0.40;;
16839;SDS011;8536;52.150;11.572;2022-08-01T13:06:12;0.93;;;0.63;;
16839;SDS011;8536;52.150;11.572;2022-08-01T13:08:41;1.90;;;0.70;;
16839;SDS011;8536;52.150;11.572;2022-08-01T13:11:09;0.50;;;0.50;;
16839;SDS011;8536;52.150;11.572;2022-08-01T13:13:50;1.00;;;0.50;;
16839;SDS011;8536;52.150;11.572;2022-08-01T13:16:17;0.73;;;0.60;;
16839;SDS011;8536;52.150;11.572;2022-08-01T13:19:03;1.65;;;0.70;;
16839;SDS011;8536;52.150;11.572;2022-08-01T13:21:30;1.90;;;0.50;;
16839;SDS011;8536;52.150;11.572;2022-08-01T13:24:22;0.57;;;0.57;;
16839;SDS011;8536;52.150;11.572;2022-08-01T13:26:56;1.15;;;0.60;;
16839;SDS011;8536;52.150;11.572;2022-08-01T13:29:38;0.50;;;0.50;;
16839;SDS011;8536;52.150;11.572;2022-08-01T13:32:11;0.60;;;0.60;;
16839;SDS011;8536;52.150;11.572;2022-08-01T13:35:04;0.50;;;0.50;;
16839;SDS011;8536;52.150;11.572;2022-08-01T13:37:33;1.80;;;0.50;;
16839;SDS011;8536;52.150;11.572;2022-08-01T13:40:02;0.50;;;0.50;;
16839;SDS011;8536;52.150;11.572;2022-08-01T13:42:29;0.52;;;0.50;;
16839;SDS011;8536;52.150;11.572;2022-08-01T13:44:55;0.43;;;0.43;;
16839;SDS011;8536;52.150;11.572;2022-08-01T13:47:22;0.90;;;0.77;;
16839;SDS011;8536;52.150;11.572;2022-08-01T13:49:57;0.52;;;0.40;;
16839;SDS011;8536;52.150;11.572;2022-08-01T13:52:27;0.60;;;0.60;;
16839;SDS011;8536;52.150;11.572;2022-08-01T13:54:53;0.98;;;0.50;;
16839;SDS011;8536;52.150;11.572;2022-08-01T13:57:19;0.50;;;0.50;;
16839;SDS011;8536;52.150;11.572;2022-08-01T13:59:47;0.75;;;0.60;;
16839;SDS011;8536;52.150;11.572;2022-08-01T14:02:14;0.52;;;0.50;;
16839;SDS011;8536;52.150;11.572;2022-08-01T14:04:40;0.50;;;0.50;;
16839;SDS011;8536;52.150;11.572;2022-08-01T14:07:07;0.38;;;0.38;;
16839;SDS011;8536;52.150;11.572;2022-08-01T14:09:40;0.68;;;0.57;;
16839;SDS011;8536;52.150;11.572;2022-08-01T14:12:26;1.13;;;0.60;;
16839;SDS011;8536;52.150;11.572;2022-08-01T14:14:53;0.77;;;0.60;;
16839;SDS011;8536;52.150;11.572;2022-08-01T14:17:19;0.65;;;0.60;;
16839;SDS011;8536;52.150;11.572;2022-08-01T14:19:47;0.77;;;0.52;;
16839;SDS011;8536;52.150;11.572;2022-08-01T14:22:13;0.47;;;0.45;;
16839;SDS011;8536;52.150;11.572;2022-08-01T14:24:40;0.60;;;0.60;;
16839;SDS011;8536;52.150;11.572;2022-08-01T14:27:06;0.73;;;0.50;;
16839;SDS011;8536;52.150;11.572;2022-08-01T14:29:33;0.50;;;0.50;;
16839;SDS011;8536;52.150;11.572;2022-08-01T14:32:19;0.50;;;0.50;;
16839;SDS011;8536;52.150;11.572;2022-08-01T14:34:53;0.68;;;0.50;;
16839;SDS011;8536;52.150;11.572;2022-08-01T14:37:20;0.60;;;0.57;;
16839;SDS011;8536;52.150;11.572;2022-08-01T14:39:46;0.73;;;0.70;;
16839;SDS011;8536;52.150;11.572;2022-08-01T14:42:19;0.70;;;0.55;;
16839;SDS011;8536;52.150;11.572;2022-08-01T14:44:46;0.80;;;0.60;;
16839;SDS011;8536;52.150;11.572;2022-08-01T14:47:15;1.42;;;0.50;;
16839;SDS011;8536;52.150;11.572;2022-08-01T14:49:47;0.80;;;0.70;;
16839;SDS011;8536;52.150;11.572;2022-08-01T14:52:14;0.90;;;0.60;;
16839;SDS011;8536;52.150;11.572;2022-08-01T14:54:40;0.60;;;0.60;;
16839;SDS011;8536;52.150;11.572;2022-08-01T14:57:07;1.52;;;0.80;;
16839;SDS011;8536;52.150;11.572;2022-08-01T14:59:33;0.68;;;0.50;;
16839;SDS011;8536;52.150;11.572;2022-08-01T15:02:01;0.60;;;0.60;;
16839;SDS011;8536;52.150;11.572;2022-08-01T15:04:27;1.00;;;0.70;;
16839;SDS011;8536;52.150;11.572;2022-08-01T15:06:54;0.85;;;0.60;;
16839;SDS011;8536;52.150;11.572;2022-08-01T15:09:20;0.95;;;0.75;;
16839;SDS011;8536;52.150;11.572;2022-08-01T15:11:49;0.80;;;0.63;;
16839;SDS011;8536;52.150;11.572;2022-08-01T15:14:15;1.02;;;0.63;;
16839;SDS011;8536;52.150;11.572;2022-08-01T15:17:00;0.55;;;0.55;;
16839;SDS011;8536;52.150;11.572;2022-08-01T15:19:27;1.65;;;0.70;;
16839;SDS011;8536;52.150;11.572;2022-08-01T15:21:53;0.80;;;0.80;;
16839;SDS011;8536;52.150;11.572;2022-08-01T15:24:20;0.88;;;0.80;;
16839;SDS011;8536;52.150;11.572;2022-08-01T15:26:46;0.95;;;0.90;;
16839;SDS011;8536;52.150;11.572;2022-08-01T15:29:13;1.25;;;0.70;;
16839;SDS011;8536;52.150;11.572;2022-08-01T15:31:39;1.52;;;0.70;;
16839;SDS011;8536;52.150;11.572;2022-08-01T15:34:06;1.30;;;0.80;;
16839;SDS011;8536;52.150;11.572;2022-08-01T15:36:32;0.82;;;0.70;;
16839;SDS011;8536;52.150;11.572;2022-08-01T15:38:59;1.45;;;1.00;;
16839;SDS011;8536;52.150;11.572;2022-08-01T15:41:25;0.98;;;0.68;;
16839;SDS011;8536;52.150;11.572;2022-08-01T15:43:52;1.40;;;0.98;;